Terminal Aerodrome Forecast
Issued by NWS Atlanta, GA

Home | Current Version | Previous Version | Text Only | Print | Product List | Glossary On
Versions: 1 2 3 4 5 6 7 8 9 10 11 12 13 14 15 16 17 18 19 20 21 22 23 24 25 26 27 28 29 30 31 32 33 34 35 36 37 38
274
FTUS42 KFFC 291726
TAFATL
TAF
KATL 291726Z 2918/3024 27010KT P6SM VCSH BKN045
      TEMPO 2920/2923 26020G35KT 4SM -TSRA BKN035CB
     FM300100 26006KT P6SM SCT060 BKN120
     FM301400 28007KT P6SM SCT025
     FM301600 29009KT P6SM SCT045 PROB30 3020/3024 5SM -TSRA
      BKN035CB=

USA.gov is the U.S. government's official web portal to all federal, state and local government web resources and services.